createdAt,value
2018-12-16T00:00:43.863Z,0.00
2018-12-16T00:01:43.926Z,0.00
2018-12-16T00:02:43.911Z,0.00
2018-12-16T00:03:43.936Z,0.00
2018-12-16T00:04:49.871Z,0.00
2018-12-16T00:05:44.045Z,0.00
2018-12-16T00:06:44.006Z,0.00
2018-12-16T00:07:44.027Z,0.00
2018-12-16T00:08:44.050Z,0.00
2018-12-16T00:09:44.075Z,0.00
2018-12-16T00:10:44.099Z,0.00
2018-12-16T00:11:44.122Z,0.00
2018-12-16T00:12:44.149Z,0.00
2018-12-16T00:13:44.169Z,0.00
2018-12-16T00:14:44.200Z,0.00
2018-12-16T00:15:44.215Z,0.00
2018-12-16T00:16:44.240Z,0.00
2018-12-16T00:17:44.262Z,0.00
2018-12-16T00:18:44.287Z,0.00
2018-12-16T00:19:44.311Z,0.00
2018-12-16T00:20:44.333Z,0.00
2018-12-16T00:21:44.361Z,0.00
2018-12-16T00:22:44.384Z,0.00
2018-12-16T00:23:44.404Z,0.00
2018-12-16T00:24:44.428Z,0.00
2018-12-16T00:25:44.455Z,0.00
2018-12-16T00:26:44.476Z,0.00
2018-12-16T00:27:44.501Z,0.00
2018-12-16T00:28:44.522Z,0.00
2018-12-16T00:29:44.545Z,0.00
2018-12-16T00:30:44.571Z,0.00
2018-12-16T00:31:44.594Z,0.00
2018-12-16T00:32:44.618Z,0.00
2018-12-16T00:33:44.641Z,0.00
2018-12-16T00:34:44.666Z,0.00
2018-12-16T00:35:44.690Z,0.00
2018-12-16T00:36:44.712Z,0.00
2018-12-16T00:37:44.737Z,0.00
2018-12-16T00:38:44.760Z,0.00
2018-12-16T00:39:44.784Z,0.00
2018-12-16T00:40:44.808Z,0.00
2018-12-16T00:41:44.831Z,0.00
2018-12-16T00:42:44.855Z,0.00
2018-12-16T00:43:44.877Z,0.00
2018-12-16T00:44:44.901Z,0.00
2018-12-16T00:45:44.925Z,0.00
2018-12-16T00:46:44.949Z,0.00
2018-12-16T00:47:44.973Z,0.00
2018-12-16T00:48:44.996Z,0.00
2018-12-16T00:49:45.021Z,0.00
2018-12-16T00:50:45.048Z,0.00
2018-12-16T00:51:45.066Z,0.00
2018-12-16T00:52:45.091Z,0.00
2018-12-16T00:53:45.115Z,0.00
2018-12-16T00:54:45.139Z,0.00
2018-12-16T00:55:45.165Z,0.00
2018-12-16T00:56:45.187Z,0.00
2018-12-16T00:57:45.210Z,0.00
2018-12-16T00:58:45.232Z,0.00
2018-12-16T00:59:45.260Z,0.00
2018-12-16T01:00:45.280Z,0.00
2018-12-16T01:01:45.304Z,0.00
2018-12-16T01:02:45.329Z,0.00
2018-12-16T01:03:45.351Z,0.00
2018-12-16T01:04:45.375Z,0.00
2018-12-16T01:05:45.399Z,0.00
2018-12-16T01:06:45.426Z,0.00
2018-12-16T01:07:45.445Z,0.00
2018-12-16T01:08:45.470Z,0.00
2018-12-16T01:09:45.544Z,0.00
2018-12-16T01:10:45.520Z,0.00
2018-12-16T01:11:45.543Z,0.00
2018-12-16T01:12:45.574Z,0.00
2018-12-16T01:13:45.589Z,0.00
2018-12-16T01:14:45.613Z,0.00
2018-12-16T01:15:45.635Z,0.00
2018-12-16T01:16:45.662Z,0.00
2018-12-16T01:17:45.683Z,0.00
2018-12-16T01:18:45.709Z,0.00
2018-12-16T01:19:45.732Z,0.00
2018-12-16T01:20:45.754Z,0.00
2018-12-16T01:21:45.779Z,0.00
2018-12-16T01:22:45.802Z,0.00
2018-12-16T01:23:45.831Z,0.00
2018-12-16T01:24:45.847Z,0.00
2018-12-16T01:25:45.872Z,0.00
2018-12-16T01:26:45.897Z,0.00
2018-12-16T01:27:45.919Z,0.00
2018-12-16T01:28:45.943Z,0.00
2018-12-16T01:29:45.967Z,0.00
2018-12-16T01:30:45.995Z,0.00
2018-12-16T01:31:46.013Z,0.00
2018-12-16T01:32:46.037Z,0.00
2018-12-16T01:33:46.061Z,0.00
2018-12-16T01:34:46.085Z,0.00
2018-12-16T01:35:46.107Z,0.00
2018-12-16T01:36:46.131Z,0.00
2018-12-16T01:37:46.160Z,0.00
2018-12-16T01:38:46.178Z,0.00
2018-12-16T01:39:46.200Z,0.00
2018-12-16T01:40:46.225Z,0.00
2018-12-16T01:41:46.249Z,0.00
2018-12-16T01:42:46.272Z,0.00
2018-12-16T01:43:46.295Z,0.00
2018-12-16T01:44:46.318Z,0.00
2018-12-16T01:45:46.342Z,0.00
2018-12-16T01:46:46.366Z,0.00
2018-12-16T01:47:46.388Z,0.00
2018-12-16T01:48:46.411Z,0.00
2018-12-16T01:49:46.435Z,0.00
2018-12-16T01:50:46.458Z,0.00
2018-12-16T01:51:46.482Z,0.00
2018-12-16T01:52:50.213Z,0.00
2018-12-16T01:53:46.528Z,0.00
2018-12-16T01:54:46.552Z,0.00
2018-12-16T01:55:46.574Z,0.00
2018-12-16T01:56:46.598Z,0.00
2018-12-16T01:57:46.621Z,0.00
2018-12-16T01:58:46.644Z,0.00
2018-12-16T01:59:46.667Z,0.00
2018-12-16T02:00:46.690Z,0.00
2018-12-16T02:01:46.713Z,0.00
2018-12-16T02:02:46.737Z,0.00
2018-12-16T02:03:46.759Z,0.00
2018-12-16T02:04:46.782Z,0.00
2018-12-16T02:05:46.806Z,0.00
2018-12-16T02:06:46.829Z,0.00
2018-12-16T02:07:46.853Z,0.00
2018-12-16T02:08:46.875Z,0.00
2018-12-16T02:09:47.849Z,0.00
2018-12-16T02:10:46.921Z,0.00
2018-12-16T02:11:46.945Z,0.00
2018-12-16T02:12:46.967Z,0.00
2018-12-16T02:13:46.991Z,0.00
2018-12-16T02:14:47.015Z,0.00
2018-12-16T02:15:47.036Z,0.00
2018-12-16T02:16:47.061Z,0.00
2018-12-16T02:17:47.085Z,0.00
2018-12-16T02:18:47.106Z,0.00
2018-12-16T02:19:47.129Z,0.00
2018-12-16T02:20:47.152Z,0.00
2018-12-16T02:21:47.176Z,0.00
2018-12-16T02:22:47.200Z,0.00
2018-12-16T02:23:47.221Z,0.00
2018-12-16T02:24:47.246Z,0.00
2018-12-16T02:25:47.269Z,0.00
2018-12-16T02:26:47.291Z,0.00
2018-12-16T02:27:47.313Z,0.00
2018-12-16T02:28:47.336Z,0.00
2018-12-16T02:29:47.359Z,0.00
2018-12-16T02:30:47.382Z,0.00
2018-12-16T02:31:47.406Z,0.00
2018-12-16T02:32:47.430Z,0.00
2018-12-16T02:33:47.453Z,0.00
2018-12-16T02:34:47.476Z,0.00
2018-12-16T02:35:47.497Z,0.00
2018-12-16T02:36:47.536Z,0.00
2018-12-16T02:37:47.544Z,0.00
2018-12-16T02:38:47.568Z,0.00
2018-12-16T02:39:47.588Z,0.00
2018-12-16T02:40:47.614Z,0.00
2018-12-16T02:41:47.635Z,0.00
2018-12-16T02:42:47.661Z,0.00
2018-12-16T02:43:47.684Z,0.00
2018-12-16T02:44:47.705Z,0.00
2018-12-16T02:45:47.729Z,0.00
2018-12-16T02:46:47.753Z,0.00
2018-12-16T02:47:47.775Z,0.00
2018-12-16T02:48:47.799Z,0.00
2018-12-16T02:49:47.821Z,0.00
2018-12-16T02:50:47.848Z,0.00
2018-12-16T02:51:47.868Z,0.00
2018-12-16T02:52:47.898Z,0.00
2018-12-16T02:53:47.913Z,0.00
2018-12-16T02:54:47.940Z,0.00
2018-12-16T02:55:47.961Z,0.00
2018-12-16T02:56:47.984Z,0.00
2018-12-16T02:57:48.008Z,0.00
2018-12-16T02:58:48.036Z,0.00
2018-12-16T02:59:48.054Z,0.00
2018-12-16T03:00:48.079Z,0.00
2018-12-16T03:01:48.102Z,0.00
2018-12-16T03:02:48.123Z,0.00
2018-12-16T03:03:48.151Z,0.00
2018-12-16T03:04:48.170Z,0.00
2018-12-16T03:05:48.198Z,0.00
2018-12-16T03:06:48.221Z,0.00
2018-12-16T03:07:48.242Z,0.00
2018-12-16T03:08:48.266Z,0.00
2018-12-16T03:09:48.289Z,0.00
2018-12-16T03:10:48.315Z,0.00
2018-12-16T03:11:48.335Z,0.00
2018-12-16T03:12:48.360Z,0.00
2018-12-16T03:13:48.393Z,0.00
2018-12-16T03:14:48.409Z,0.00
2018-12-16T03:15:48.430Z,0.00
2018-12-16T03:16:48.464Z,0.00
2018-12-16T03:17:48.475Z,0.00
2018-12-16T03:18:48.502Z,0.00
2018-12-16T03:19:48.524Z,0.00
2018-12-16T03:20:48.554Z,0.00
2018-12-16T03:21:48.571Z,0.00
2018-12-16T03:22:48.594Z,0.00
2018-12-16T03:23:48.618Z,0.00
2018-12-16T03:24:48.642Z,0.00
2018-12-16T03:25:48.666Z,0.00
2018-12-16T03:26:48.689Z,0.00
2018-12-16T03:27:48.712Z,0.00
2018-12-16T03:28:48.736Z,0.00
2018-12-16T03:29:48.760Z,0.00
2018-12-16T03:30:48.785Z,0.00
2018-12-16T03:31:48.821Z,0.00
2018-12-16T03:32:48.832Z,0.00
2018-12-16T03:33:48.858Z,0.00
2018-12-16T03:34:48.879Z,0.00
2018-12-16T03:35:48.904Z,0.00
2018-12-16T03:36:48.925Z,0.00
2018-12-16T03:37:48.949Z,0.00
2018-12-16T03:38:49.045Z,0.00
2018-12-16T03:39:48.997Z,0.00
2018-12-16T03:40:49.020Z,0.00
2018-12-16T03:41:49.046Z,0.00
2018-12-16T03:42:49.072Z,0.00
2018-12-16T03:43:49.090Z,0.00
2018-12-16T03:44:49.122Z,0.00
2018-12-16T03:45:49.140Z,0.00
2018-12-16T03:46:49.163Z,0.00
2018-12-16T03:47:49.185Z,0.00
2018-12-16T03:48:49.210Z,0.00
2018-12-16T03:49:49.235Z,0.00
2018-12-16T03:50:49.257Z,0.00
2018-12-16T03:51:49.279Z,0.00
2018-12-16T03:52:49.303Z,0.00
2018-12-16T03:53:49.328Z,0.00
2018-12-16T03:54:49.354Z,0.00
2018-12-16T03:55:49.377Z,0.00
2018-12-16T03:56:49.406Z,0.00
2018-12-16T03:57:49.426Z,0.00
2018-12-16T03:58:49.445Z,0.00
2018-12-16T03:59:49.469Z,0.00
2018-12-16T04:00:49.494Z,0.00
2018-12-16T04:01:49.521Z,0.00
2018-12-16T04:02:49.540Z,0.00
2018-12-16T04:03:49.563Z,0.00
2018-12-16T04:04:49.591Z,0.00
2018-12-16T04:05:49.613Z,0.00
2018-12-16T04:06:49.638Z,0.00
2018-12-16T04:07:49.662Z,0.00
2018-12-16T04:08:49.691Z,0.00
2018-12-16T04:09:49.704Z,0.00
2018-12-16T04:10:49.729Z,0.00
2018-12-16T04:11:49.751Z,0.00
2018-12-16T04:12:49.773Z,0.00
2018-12-16T04:13:49.795Z,0.00
2018-12-16T04:14:49.821Z,0.00
2018-12-16T04:15:49.843Z,0.00
2018-12-16T04:16:49.866Z,0.00
2018-12-16T04:17:49.889Z,0.00
2018-12-16T04:18:49.913Z,0.00
2018-12-16T04:19:49.935Z,0.00
2018-12-16T04:20:49.988Z,0.00
2018-12-16T04:21:49.982Z,0.00
2018-12-16T04:22:50.006Z,0.00
2018-12-16T04:23:50.031Z,0.00
2018-12-16T04:24:50.052Z,0.00
2018-12-16T04:25:50.074Z,0.00
2018-12-16T04:26:50.099Z,0.00
2018-12-16T04:27:50.122Z,0.00
2018-12-16T04:28:50.144Z,0.00
2018-12-16T04:29:50.168Z,0.00
2018-12-16T04:30:50.191Z,0.00
2018-12-16T04:31:50.215Z,0.00
2018-12-16T04:32:50.238Z,0.00
2018-12-16T04:33:50.260Z,0.00
2018-12-16T04:34:50.284Z,0.00
2018-12-16T04:35:50.310Z,0.00
2018-12-16T04:36:50.329Z,0.00
2018-12-16T04:37:50.352Z,0.00
2018-12-16T04:38:50.377Z,0.00
2018-12-16T04:39:50.399Z,0.00
2018-12-16T04:40:50.421Z,0.00
2018-12-16T04:41:50.495Z,0.00
2018-12-16T04:42:50.468Z,0.00
2018-12-16T04:43:50.491Z,0.00
2018-12-16T04:44:50.515Z,0.00
2018-12-16T04:45:50.536Z,0.00
2018-12-16T04:46:50.561Z,0.00
2018-12-16T04:47:50.583Z,0.00
2018-12-16T04:48:50.610Z,0.00
2018-12-16T04:49:50.634Z,0.00
2018-12-16T04:50:50.654Z,0.00
2018-12-16T04:51:50.677Z,0.00
2018-12-16T04:52:50.702Z,0.00
2018-12-16T04:53:50.724Z,0.00
2018-12-16T04:54:50.746Z,0.00
2018-12-16T04:55:50.769Z,0.00
2018-12-16T04:56:50.792Z,0.00
2018-12-16T04:57:50.816Z,0.00
2018-12-16T04:58:50.839Z,0.00
2018-12-16T04:59:50.862Z,0.00
2018-12-16T05:00:50.885Z,0.00
2018-12-16T05:01:50.910Z,0.00
2018-12-16T05:02:50.933Z,0.00
2018-12-16T05:03:50.955Z,0.00
2018-12-16T05:04:50.977Z,0.00
2018-12-16T05:05:51.003Z,0.00
2018-12-16T05:06:51.027Z,0.00
2018-12-16T05:07:51.049Z,0.00
2018-12-16T05:08:51.072Z,0.00
2018-12-16T05:09:51.095Z,0.00
2018-12-16T05:10:51.119Z,0.00
2018-12-16T05:11:51.143Z,0.00
2018-12-16T05:12:51.165Z,0.00
2018-12-16T05:13:51.189Z,0.00
2018-12-16T05:14:51.213Z,0.00
2018-12-16T05:15:51.240Z,0.00
2018-12-16T05:16:51.261Z,0.00
2018-12-16T05:17:51.285Z,0.00
2018-12-16T05:18:51.307Z,0.00
2018-12-16T05:19:51.329Z,0.00
2018-12-16T05:20:51.353Z,0.00
2018-12-16T05:21:51.377Z,0.00
2018-12-16T05:22:51.400Z,0.00
2018-12-16T05:23:51.425Z,0.00
2018-12-16T05:24:51.447Z,0.00
2018-12-16T05:25:51.472Z,0.00
2018-12-16T05:26:51.495Z,0.00
2018-12-16T05:27:51.517Z,0.00
2018-12-16T05:28:51.571Z,0.00
2018-12-16T05:29:51.566Z,0.00
2018-12-16T05:30:51.589Z,0.00
2018-12-16T05:31:51.613Z,0.00
2018-12-16T05:32:51.635Z,0.00
2018-12-16T05:33:51.660Z,0.00
2018-12-16T05:34:51.683Z,0.00
2018-12-16T05:35:51.706Z,0.00
2018-12-16T05:36:51.729Z,0.00
2018-12-16T05:37:51.753Z,0.00
2018-12-16T05:38:51.777Z,0.00
2018-12-16T05:39:51.800Z,0.00
2018-12-16T05:40:51.824Z,0.00
2018-12-16T05:41:51.849Z,0.00
2018-12-16T05:42:51.872Z,0.00
2018-12-16T05:43:51.894Z,0.00
2018-12-16T05:44:51.918Z,0.00
2018-12-16T05:45:51.945Z,0.00
2018-12-16T05:46:51.967Z,0.00
2018-12-16T05:47:51.990Z,0.00
2018-12-16T05:48:52.013Z,0.00
2018-12-16T05:49:52.037Z,0.00
2018-12-16T05:50:52.061Z,0.00
2018-12-16T05:51:52.083Z,0.00
2018-12-16T05:52:52.107Z,0.00
2018-12-16T05:53:52.131Z,0.00
2018-12-16T05:54:52.155Z,0.00
2018-12-16T05:55:52.183Z,0.00
2018-12-16T05:56:52.202Z,0.00
2018-12-16T05:57:52.275Z,0.00
2018-12-16T05:58:52.249Z,0.00
2018-12-16T05:59:52.271Z,0.00
2018-12-16T06:00:52.297Z,0.00
2018-12-16T06:01:52.321Z,0.00
2018-12-16T06:02:52.343Z,0.00
2018-12-16T06:03:52.366Z,0.00
2018-12-16T06:04:52.390Z,0.00
2018-12-16T06:05:52.419Z,0.00
2018-12-16T06:06:52.437Z,0.00
2018-12-16T06:07:52.460Z,0.00
2018-12-16T06:08:52.484Z,0.00
2018-12-16T06:09:52.508Z,0.00
2018-12-16T06:10:52.533Z,0.00
2018-12-16T06:11:52.555Z,0.00
2018-12-16T06:12:52.578Z,0.00
2018-12-16T06:13:52.603Z,0.00
2018-12-16T06:14:52.627Z,0.00
2018-12-16T06:15:52.649Z,0.00
2018-12-16T06:16:52.674Z,0.00
2018-12-16T06:17:52.763Z,0.00
2018-12-16T06:18:52.767Z,0.00
2018-12-16T06:19:52.744Z,0.00
2018-12-16T06:20:52.766Z,0.00
2018-12-16T06:21:52.792Z,0.00
2018-12-16T06:22:52.814Z,0.00
2018-12-16T06:23:55.699Z,0.00
2018-12-16T06:24:52.862Z,0.00
2018-12-16T06:25:52.885Z,0.00
2018-12-16T06:26:52.909Z,0.00
2018-12-16T06:27:52.932Z,0.00
2018-12-16T06:28:52.956Z,0.00
2018-12-16T06:29:52.979Z,0.00
2018-12-16T06:30:53.003Z,0.00
2018-12-16T06:31:53.025Z,0.00
2018-12-16T06:32:53.088Z,0.00
2018-12-16T06:33:53.073Z,0.00
2018-12-16T06:34:53.098Z,0.00
2018-12-16T06:35:53.119Z,0.00
2018-12-16T06:36:53.146Z,0.00
2018-12-16T06:37:53.167Z,0.00
2018-12-16T06:38:53.191Z,0.00
2018-12-16T06:39:53.215Z,0.00
2018-12-16T06:40:53.243Z,0.00
2018-12-16T06:41:53.264Z,0.00
2018-12-16T06:42:53.287Z,0.00
2018-12-16T06:43:53.317Z,0.00
2018-12-16T06:44:53.333Z,0.00
2018-12-16T06:45:53.356Z,0.00
2018-12-16T06:46:53.380Z,4.00
2018-12-16T06:47:53.404Z,4.00
2018-12-16T06:48:53.426Z,4.00
2018-12-16T06:49:53.450Z,0.00
2018-12-16T06:50:53.474Z,4.00
2018-12-16T06:51:53.495Z,4.00
2018-12-16T06:52:53.521Z,4.00
2018-12-16T06:53:53.545Z,4.00
2018-12-16T06:54:53.568Z,4.00
2018-12-16T06:55:53.592Z,8.00
2018-12-16T06:56:53.615Z,4.00
2018-12-16T06:57:53.639Z,8.00
2018-12-16T06:58:53.664Z,12.00
2018-12-16T06:59:53.732Z,16.00
2018-12-16T07:00:53.710Z,16.00
2018-12-16T07:01:53.734Z,24.00
2018-12-16T07:02:53.758Z,24.00
2018-12-16T07:03:53.780Z,24.00
2018-12-16T07:04:53.804Z,32.00
2018-12-16T07:05:53.830Z,36.00
2018-12-16T07:06:53.854Z,36.00
2018-12-16T07:07:53.875Z,40.00
2018-12-16T07:08:53.943Z,36.00
2018-12-16T07:09:53.924Z,40.00
2018-12-16T07:10:53.948Z,44.00
2018-12-16T07:11:53.971Z,40.00
2018-12-16T07:12:53.994Z,44.00
2018-12-16T07:13:54.019Z,48.00
2018-12-16T07:14:54.042Z,52.00
2018-12-16T07:15:54.065Z,64.00
2018-12-16T07:16:54.088Z,64.00
2018-12-16T07:17:54.112Z,68.00
2018-12-16T07:18:54.138Z,72.00
2018-12-16T07:19:54.160Z,84.00
2018-12-16T07:20:54.222Z,84.00
2018-12-16T07:21:54.210Z,80.00
2018-12-16T07:22:54.232Z,92.00
2018-12-16T07:23:54.280Z,100.00
2018-12-16T07:24:54.279Z,108.00
2018-12-16T07:25:54.317Z,128.00
2018-12-16T07:26:54.326Z,144.00
2018-12-16T07:27:54.349Z,156.00
2018-12-16T07:28:54.373Z,168.00
2018-12-16T07:29:54.425Z,188.00
2018-12-16T07:30:54.422Z,188.00
2018-12-16T07:31:54.444Z,204.00
2018-12-16T07:32:54.489Z,228.00
2018-12-16T07:33:54.492Z,248.00
2018-12-16T07:34:54.516Z,248.00
2018-12-16T07:35:54.545Z,260.00
2018-12-16T07:36:54.573Z,280.00
2018-12-16T07:37:54.590Z,296.00
2018-12-16T07:38:54.661Z,292.00
2018-12-16T07:39:54.635Z,296.00
2018-12-16T07:40:54.661Z,320.00
2018-12-16T07:41:54.683Z,336.00
2018-12-16T07:42:54.707Z,360.00
2018-12-16T07:43:54.731Z,360.00
2018-12-16T07:44:54.781Z,396.00
2018-12-16T07:45:54.780Z,384.00
2018-12-16T07:46:54.810Z,384.00
2018-12-16T07:47:54.827Z,392.00
2018-12-16T07:48:54.868Z,372.00
2018-12-16T07:49:54.949Z,376.00
2018-12-16T07:50:54.902Z,408.00
2018-12-16T07:51:54.944Z,444.00
2018-12-16T07:52:54.948Z,480.00
2018-12-16T07:53:54.973Z,500.00
2018-12-16T07:54:55.013Z,544.00
2018-12-16T07:55:55.055Z,588.00
2018-12-16T07:56:55.064Z,576.00
2018-12-16T07:57:55.067Z,572.00
2018-12-16T07:58:55.113Z,584.00
2018-12-16T07:59:55.115Z,560.00
2018-12-16T08:00:55.140Z,572.00
2018-12-16T08:01:55.164Z,592.00
2018-12-16T08:02:55.188Z,576.00
2018-12-16T08:03:55.211Z,580.00
2018-12-16T08:04:55.237Z,608.00
2018-12-16T08:05:55.260Z,632.00
2018-12-16T08:06:55.284Z,608.00
2018-12-16T08:07:55.307Z,604.00
2018-12-16T08:08:55.332Z,616.00
2018-12-16T08:09:55.355Z,620.00
2018-12-16T08:10:55.380Z,620.00
2018-12-16T08:11:55.403Z,644.00
2018-12-16T08:12:55.429Z,720.00
2018-12-16T08:13:55.453Z,800.00
2018-12-16T08:14:55.477Z,876.00
2018-12-16T08:15:55.500Z,924.00
2018-12-16T08:16:55.524Z,1012.00
2018-12-16T08:17:55.548Z,1100.00
2018-12-16T08:18:55.574Z,1164.00
2018-12-16T08:19:55.601Z,1256.00
2018-12-16T08:20:55.623Z,1252.00
2018-12-16T08:21:55.647Z,1272.00
2018-12-16T08:22:55.669Z,1352.00
2018-12-16T08:23:55.694Z,1464.00
2018-12-16T08:24:55.718Z,1448.00
2018-12-16T08:25:55.746Z,1420.00
2018-12-16T08:26:55.767Z,1320.00
2018-12-16T08:27:55.790Z,1184.00
2018-12-16T08:28:55.816Z,1144.00
2018-12-16T08:29:55.839Z,1124.00
2018-12-16T08:30:55.865Z,1128.00
2018-12-16T08:31:55.887Z,1116.00
2018-12-16T08:32:55.913Z,1096.00
2018-12-16T08:33:55.937Z,1076.00
2018-12-16T08:34:55.961Z,1152.00
2018-12-16T08:35:55.985Z,1216.00
2018-12-16T08:36:56.010Z,1152.00
2018-12-16T08:37:56.036Z,1248.00
2018-12-16T08:38:56.062Z,1312.00
2018-12-16T08:39:56.082Z,1380.00
2018-12-16T08:40:56.107Z,1484.00
2018-12-16T08:41:56.131Z,1592.00
2018-12-16T08:42:56.155Z,1696.00
2018-12-16T08:43:56.180Z,1844.00
2018-12-16T08:44:56.205Z,2052.00
2018-12-16T08:45:56.233Z,1964.00
2018-12-16T08:46:56.255Z,1896.00
2018-12-16T08:47:56.278Z,2120.00
2018-12-16T08:48:56.303Z,2164.00
2018-12-16T08:49:56.328Z,2088.00
2018-12-16T08:50:56.353Z,2004.00
2018-12-16T08:51:56.377Z,1916.00
2018-12-16T08:52:56.402Z,1856.00
2018-12-16T08:53:56.431Z,1900.00
2018-12-16T08:54:56.453Z,1984.00
2018-12-16T08:55:57.910Z,2216.00
2018-12-16T08:56:56.501Z,2312.00
2018-12-16T08:57:56.525Z,2340.00
2018-12-16T08:58:56.553Z,2268.00
2018-12-16T08:59:56.627Z,2152.00
2018-12-16T09:00:56.602Z,2056.00
2018-12-16T09:01:56.627Z,2096.00
2018-12-16T09:02:56.651Z,2372.00
2018-12-16T09:03:56.675Z,2280.00
2018-12-16T09:04:56.700Z,2312.00
2018-12-16T09:05:56.723Z,2556.00
2018-12-16T09:06:56.750Z,3108.00
2018-12-16T09:07:56.774Z,3116.00
2018-12-16T09:08:56.798Z,3192.00
2018-12-16T09:09:56.824Z,3056.00
2018-12-16T09:10:56.847Z,2500.00
2018-12-16T09:11:56.873Z,2676.00
2018-12-16T09:12:56.899Z,2776.00
2018-12-16T09:13:56.924Z,3324.00
2018-12-16T09:14:56.949Z,3536.00
2018-12-16T09:15:56.974Z,4388.00
2018-12-16T09:16:56.998Z,4588.00
2018-12-16T09:17:57.024Z,4348.00
2018-12-16T09:18:57.050Z,3868.00
2018-12-16T09:19:57.074Z,4052.00
2018-12-16T09:20:57.099Z,3744.00
2018-12-16T09:21:57.124Z,3312.00
2018-12-16T09:22:57.153Z,3188.00
2018-12-16T09:23:57.173Z,3072.00
2018-12-16T09:24:57.201Z,2836.00
2018-12-16T09:25:57.227Z,2804.00
2018-12-16T09:26:57.252Z,2676.00
2018-12-16T09:27:57.275Z,2724.00
2018-12-16T09:28:57.300Z,2932.00
2018-12-16T09:29:57.331Z,3400.00
2018-12-16T09:30:58.184Z,4112.00
2018-12-16T09:31:57.377Z,4168.00
2018-12-16T09:32:57.404Z,3736.00
2018-12-16T09:33:57.428Z,3552.00
2018-12-16T09:34:57.456Z,3528.00
2018-12-16T09:35:57.479Z,3212.00
2018-12-16T09:36:57.505Z,3368.00
2018-12-16T09:37:57.531Z,3576.00
2018-12-16T09:38:57.556Z,3540.00
2018-12-16T09:39:57.582Z,3892.00
2018-12-16T09:40:57.606Z,4192.00
2018-12-16T09:41:57.632Z,4080.00
2018-12-16T09:42:57.658Z,4240.00
2018-12-16T09:43:57.683Z,3992.00
2018-12-16T09:44:57.709Z,3996.00
2018-12-16T09:45:57.735Z,3956.00
2018-12-16T09:46:57.765Z,4044.00
2018-12-16T09:47:57.787Z,4380.00
2018-12-16T09:48:57.812Z,4900.00
2018-12-16T09:49:57.838Z,5232.00
2018-12-16T09:50:57.864Z,5080.00
2018-12-16T09:51:57.889Z,4948.00
2018-12-16T09:52:57.915Z,4836.00
2018-12-16T09:53:57.949Z,4588.00
2018-12-16T09:54:57.967Z,5752.00
2018-12-16T09:55:57.992Z,6736.00
2018-12-16T09:56:58.018Z,6384.00
2018-12-16T09:57:58.047Z,6160.00
2018-12-16T09:58:58.071Z,6064.00
2018-12-16T09:59:58.096Z,6276.00
2018-12-16T10:00:58.122Z,6412.00
2018-12-16T10:01:58.151Z,7296.00
2018-12-16T10:02:58.175Z,8136.00
2018-12-16T10:03:58.200Z,8584.00
2018-12-16T10:04:58.227Z,9108.00
2018-12-16T10:05:58.252Z,9288.00
2018-12-16T10:06:58.277Z,9544.00
2018-12-16T10:07:58.303Z,9740.00
2018-12-16T10:08:58.331Z,9716.00
2018-12-16T10:09:58.355Z,10024.00
2018-12-16T10:10:58.382Z,12080.00
2018-12-16T10:11:58.407Z,16736.00
2018-12-16T10:12:58.434Z,13944.00
2018-12-16T10:13:58.462Z,13828.00
2018-12-16T10:14:58.488Z,13600.00
2018-12-16T10:15:58.515Z,13456.00
2018-12-16T10:16:58.540Z,16256.00
2018-12-16T10:17:58.567Z,17344.00
2018-12-16T10:18:58.592Z,14680.00
2018-12-16T10:19:58.618Z,14116.00
2018-12-16T10:20:58.693Z,14016.00
2018-12-16T10:21:58.673Z,14300.00
2018-12-16T10:22:58.701Z,14664.00
2018-12-16T10:23:58.728Z,14564.00
2018-12-16T10:24:58.756Z,13404.00
2018-12-16T10:25:58.785Z,12080.00
2018-12-16T10:26:58.808Z,12664.00
2018-12-16T10:27:58.836Z,14168.00
2018-12-16T10:28:58.862Z,15136.00
2018-12-16T10:29:58.890Z,14992.00
2018-12-16T10:30:58.921Z,14564.00
2018-12-16T10:31:58.944Z,13824.00
2018-12-16T10:32:58.971Z,13088.00
2018-12-16T10:33:59.000Z,15260.00
2018-12-16T10:34:59.027Z,16864.00
2018-12-16T10:35:59.054Z,11964.00
2018-12-16T10:36:59.084Z,9648.00
2018-12-16T10:37:59.109Z,9416.00
2018-12-16T10:38:59.141Z,9876.00
2018-12-16T10:39:59.164Z,9136.00
2018-12-16T10:40:59.242Z,9032.00
2018-12-16T10:41:59.220Z,9664.00
2018-12-16T10:42:59.248Z,10660.00
2018-12-16T10:43:59.275Z,11260.00
2018-12-16T10:44:59.303Z,12436.00
2018-12-16T10:45:59.330Z,14756.00
2018-12-16T10:46:59.358Z,15196.00
2018-12-16T10:47:59.426Z,18592.00
2018-12-16T10:49:04.712Z,20032.00
2018-12-16T10:49:59.468Z,20384.00
2018-12-16T10:50:59.469Z,52672.00
2018-12-16T10:51:59.496Z,58656.00
2018-12-16T10:52:59.525Z,40608.00
2018-12-16T10:53:59.554Z,34624.00
2018-12-16T10:54:59.587Z,44512.00
2018-12-16T10:55:59.609Z,40544.00
2018-12-16T10:56:59.639Z,64320.00
2018-12-16T10:57:59.671Z,33440.00
2018-12-16T10:58:59.699Z,29088.00
2018-12-16T10:59:59.728Z,27104.00
2018-12-16T11:00:59.759Z,46944.00
2018-12-16T11:01:59.790Z,49248.00
2018-12-16T11:02:59.821Z,69152.00
2018-12-16T11:03:59.854Z,67424.00
2018-12-16T11:04:59.887Z,54784.00
2018-12-16T11:05:59.921Z,66272.00
2018-12-16T11:06:59.951Z,60512.00
2018-12-16T11:07:59.982Z,42400.00
2018-12-16T11:09:00.019Z,59264.00
2018-12-16T11:10:00.050Z,59392.00
2018-12-16T11:11:00.084Z,49824.00
2018-12-16T11:12:00.118Z,57344.00
2018-12-16T11:13:00.153Z,59392.00
2018-12-16T11:14:00.189Z,33984.00
2018-12-16T11:15:00.224Z,26848.00
2018-12-16T11:16:00.258Z,26976.00
2018-12-16T11:17:00.294Z,28160.00
2018-12-16T11:18:00.329Z,53312.00
2018-12-16T11:19:00.366Z,56160.00
2018-12-16T11:20:00.400Z,50976.00
2018-12-16T11:21:00.437Z,35680.00
2018-12-16T11:22:00.472Z,46272.00
2018-12-16T11:23:00.509Z,30912.00
2018-12-16T11:24:00.543Z,35200.00
2018-12-16T11:25:05.611Z,31072.00
2018-12-16T11:26:00.616Z,27680.00
2018-12-16T11:27:00.652Z,52160.00
2018-12-16T11:28:00.686Z,59680.00
2018-12-16T11:29:00.722Z,57760.00
2018-12-16T11:30:00.758Z,18816.00
2018-12-16T11:31:00.794Z,19328.00
2018-12-16T11:32:00.829Z,19456.00
2018-12-16T11:33:00.866Z,21824.00
2018-12-16T11:34:00.900Z,33568.00
2018-12-16T11:35:00.938Z,26016.00
2018-12-16T11:36:00.972Z,35648.00
2018-12-16T11:37:01.008Z,30912.00
2018-12-16T11:38:01.045Z,31392.00
2018-12-16T11:39:01.079Z,17088.00
2018-12-16T11:40:01.115Z,62784.00
2018-12-16T11:41:01.149Z,43104.00
2018-12-16T11:42:01.185Z,38304.00
2018-12-16T11:43:01.222Z,19808.00
2018-12-16T11:44:01.258Z,58944.00
2018-12-16T11:45:01.292Z,51744.00
2018-12-16T11:46:01.329Z,60384.00
2018-12-16T11:47:01.365Z,57824.00
2018-12-16T11:48:01.397Z,54720.00
2018-12-16T11:49:01.434Z,47136.00
2018-12-16T11:50:01.482Z,64544.00
2018-12-16T11:51:01.505Z,52224.00
2018-12-16T11:52:01.546Z,63104.00
2018-12-16T11:53:01.577Z,62848.00
2018-12-16T11:54:01.614Z,59232.00
2018-12-16T11:55:01.651Z,46656.00
2018-12-16T11:56:01.688Z,53344.00
2018-12-16T11:57:01.726Z,54400.00
2018-12-16T11:58:01.763Z,56416.00
2018-12-16T11:59:01.802Z,47424.00
2018-12-16T12:00:01.838Z,54432.00
2018-12-16T12:01:01.878Z,60320.00
2018-12-16T12:02:01.914Z,59040.00
2018-12-16T12:03:01.972Z,28352.00
2018-12-16T12:04:01.992Z,58816.00
2018-12-16T12:05:02.031Z,24320.00
2018-12-16T12:06:02.066Z,50752.00
2018-12-16T12:07:02.106Z,59104.00
2018-12-16T12:08:02.144Z,58720.00
2018-12-16T12:09:02.182Z,59872.00
2018-12-16T12:10:02.222Z,60384.00
2018-12-16T12:11:02.261Z,55072.00
2018-12-16T12:12:02.297Z,53632.00
2018-12-16T12:13:02.338Z,54112.00
2018-12-16T12:14:02.375Z,57088.00
2018-12-16T12:15:02.415Z,57376.00
2018-12-16T12:16:02.452Z,51456.00
2018-12-16T12:17:02.495Z,52256.00
2018-12-16T12:18:02.532Z,53600.00
2018-12-16T12:19:02.575Z,43392.00
2018-12-16T12:20:02.609Z,53024.00
2018-12-16T12:21:02.656Z,57600.00
2018-12-16T12:22:04.486Z,53152.00
2018-12-16T12:23:02.726Z,37728.00
2018-12-16T12:24:02.766Z,56608.00
2018-12-16T12:25:02.805Z,57984.00
2018-12-16T12:26:02.844Z,55008.00
2018-12-16T12:27:02.883Z,51264.00
2018-12-16T12:28:02.920Z,16108.00
2018-12-16T12:29:02.960Z,35008.00
2018-12-16T12:30:03.000Z,20416.00
2018-12-16T12:31:03.038Z,19744.00
2018-12-16T12:32:03.077Z,12420.00
2018-12-16T12:33:03.116Z,13920.00
2018-12-16T12:34:03.154Z,13908.00
2018-12-16T12:35:03.193Z,12940.00
2018-12-16T12:36:03.480Z,13892.00
2018-12-16T12:37:03.272Z,13416.00
2018-12-16T12:38:03.306Z,17696.00
2018-12-16T12:39:03.346Z,22080.00
2018-12-16T12:40:03.380Z,16556.00
2018-12-16T12:41:03.466Z,11668.00
2018-12-16T12:42:03.452Z,10980.00
2018-12-16T12:43:03.488Z,10836.00